createdAt,value
2017-09-22T00:00:50.429Z,13.50
2017-09-22T00:03:22.367Z,13.50
2017-09-22T00:05:50.663Z,13.50
2017-09-22T00:08:29.214Z,13.50
2017-09-22T00:10:57.463Z,13.40
2017-09-22T00:13:26.781Z,13.40
2017-09-22T00:15:55.052Z,13.40
2017-09-22T00:18:27.051Z,13.40
2017-09-22T00:20:55.306Z,13.40
2017-09-22T00:23:23.596Z,13.30
2017-09-22T00:25:51.853Z,13.30
2017-09-22T00:28:20.059Z,13.30
2017-09-22T00:30:49.635Z,13.20
2017-09-22T00:33:24.998Z,13.20
2017-09-22T00:35:53.290Z,13.20
2017-09-22T00:38:22.468Z,13.20
2017-09-22T00:40:50.719Z,13.20
2017-09-22T00:43:29.447Z,13.10
2017-09-22T00:45:57.702Z,13.10
2017-09-22T00:48:26.957Z,13.20
2017-09-22T00:50:55.254Z,13.20
2017-09-22T00:53:22.739Z,13.20
2017-09-22T00:55:51.012Z,13.10
2017-09-22T00:58:19.308Z,13.00
2017-09-22T01:00:48.657Z,13.00
2017-09-22T01:03:20.354Z,13.00
2017-09-22T01:05:50.066Z,13.00
2017-09-22T01:08:20.295Z,13.00
2017-09-22T01:10:49.718Z,13.00
2017-09-22T01:13:20.970Z,13.00
2017-09-22T01:15:49.285Z,12.90
2017-09-22T01:18:20.762Z,12.90
2017-09-22T01:20:50.844Z,12.90
2017-09-22T01:23:26.545Z,12.90
2017-09-22T01:25:54.857Z,12.90
2017-09-22T01:28:25.025Z,12.80
2017-09-22T01:30:53.312Z,12.80
2017-09-22T01:33:25.047Z,12.80
2017-09-22T01:35:53.322Z,12.80
2017-09-22T01:38:25.227Z,12.80
2017-09-22T01:40:53.478Z,12.70
2017-09-22T01:43:21.775Z,12.70
2017-09-22T01:45:49.272Z,12.70
2017-09-22T01:48:21.525Z,12.70
2017-09-22T01:50:50.440Z,12.60
2017-09-22T01:53:20.703Z,12.70
2017-09-22T01:55:50.200Z,12.60
2017-09-22T01:58:20.153Z,12.70
2017-09-22T02:00:49.113Z,12.60
2017-09-22T02:03:18.463Z,12.60
2017-09-22T02:05:46.784Z,12.60
2017-09-22T02:08:15.057Z,12.60
2017-09-22T02:10:43.357Z,12.60
2017-09-22T02:13:11.624Z,12.50
2017-09-22T02:15:39.946Z,12.60
2017-09-22T02:18:08.233Z,12.50
2017-09-22T02:20:36.503Z,12.50
2017-09-22T02:23:14.849Z,12.50
2017-09-22T02:25:43.147Z,12.50
2017-09-22T02:28:12.389Z,12.50
2017-09-22T02:30:40.659Z,12.40
2017-09-22T02:33:09.937Z,12.50
2017-09-22T02:35:38.201Z,12.50
2017-09-22T02:41:00.342Z,12.40
2017-09-22T02:43:28.689Z,12.40
2017-09-22T02:45:56.953Z,12.30
2017-09-22T02:48:28.971Z,12.40
2017-09-22T02:50:57.236Z,12.30
2017-09-22T02:53:29.058Z,12.30
2017-09-22T02:55:57.324Z,12.30
2017-09-22T02:58:25.607Z,12.30
2017-09-22T03:00:53.888Z,12.30
2017-09-22T03:03:23.202Z,12.30
2017-09-22T03:05:51.489Z,12.30
2017-09-22T03:08:35.587Z,12.30
2017-09-22T03:11:03.870Z,12.30
2017-09-22T03:13:31.429Z,12.30
2017-09-22T03:15:59.728Z,12.20
2017-09-22T03:18:34.257Z,12.10
2017-09-22T03:21:02.533Z,12.10
2017-09-22T03:23:31.861Z,12.10
2017-09-22T03:25:59.369Z,12.10
2017-09-22T03:28:33.465Z,12.10
2017-09-22T03:31:01.749Z,12.10
2017-09-22T03:33:31.989Z,12.00
2017-09-22T03:36:00.263Z,12.00
2017-09-22T03:38:32.122Z,12.00
2017-09-22T03:41:00.395Z,12.00
2017-09-22T03:43:28.867Z,11.90
2017-09-22T03:45:57.165Z,11.90
2017-09-22T03:48:25.433Z,11.90
2017-09-22T03:50:53.737Z,11.90
2017-09-22T03:53:26.466Z,11.80
2017-09-22T03:55:54.750Z,11.80
2017-09-22T03:58:23.026Z,11.80
2017-09-22T04:00:51.359Z,11.90
2017-09-22T04:03:20.611Z,11.80
2017-09-22T04:05:50.199Z,11.80
2017-09-22T04:08:21.627Z,11.80
2017-09-22T04:10:51.032Z,11.80
2017-09-22T04:13:19.310Z,11.80
2017-09-22T04:15:49.716Z,11.80
2017-09-22T04:18:21.436Z,11.70
2017-09-22T04:20:50.922Z,11.70
2017-09-22T04:23:19.183Z,11.70
2017-09-22T04:25:49.687Z,11.70
2017-09-22T04:28:21.014Z,11.70
2017-09-22T04:30:49.324Z,11.70
2017-09-22T04:33:20.183Z,11.60
2017-09-22T04:35:51.202Z,11.60
2017-09-22T04:38:20.366Z,11.60
2017-09-22T04:40:50.782Z,11.60
2017-09-22T04:43:19.738Z,11.60
2017-09-22T04:45:54.475Z,11.50
2017-09-22T04:48:22.736Z,11.50
2017-09-22T04:50:52.031Z,11.40
2017-09-22T04:53:20.316Z,11.40
2017-09-22T04:55:49.840Z,11.40
2017-09-22T04:58:18.830Z,11.30
2017-09-22T05:01:05.536Z,11.40
2017-09-22T05:03:33.853Z,11.40
2017-09-22T05:06:02.142Z,11.40
2017-09-22T05:08:30.462Z,11.40
2017-09-22T05:10:59.730Z,11.40
2017-09-22T05:13:28.061Z,11.30
2017-09-22T05:16:02.410Z,11.20
2017-09-22T05:18:30.717Z,11.20
2017-09-22T05:20:58.982Z,11.30
2017-09-22T05:23:27.244Z,11.20
2017-09-22T05:26:01.597Z,11.20
2017-09-22T05:28:29.876Z,11.20
2017-09-22T05:31:00.138Z,11.20
2017-09-22T05:33:28.408Z,11.20
2017-09-22T05:35:56.694Z,11.30
2017-09-22T05:38:24.987Z,11.30
2017-09-22T05:40:53.248Z,11.20
2017-09-22T05:43:22.527Z,11.20
2017-09-22T05:45:50.801Z,11.20
2017-09-22T05:48:20.895Z,11.30
2017-09-22T05:50:59.376Z,11.20
2017-09-22T05:53:27.664Z,11.20
2017-09-22T05:56:13.159Z,11.20
2017-09-22T05:58:41.462Z,11.20
2017-09-22T06:01:09.734Z,11.20
2017-09-22T06:03:38.023Z,11.20
2017-09-22T06:06:12.109Z,11.30
2017-09-22T06:08:39.624Z,11.30
2017-09-22T06:11:14.006Z,11.30
2017-09-22T06:13:42.303Z,11.30
2017-09-22T06:16:10.567Z,11.40
2017-09-22T06:18:38.825Z,11.30
2017-09-22T06:21:07.108Z,11.30
2017-09-22T06:23:35.391Z,11.30
2017-09-22T06:26:03.684Z,11.40
2017-09-22T06:28:31.942Z,11.40
2017-09-22T06:31:00.224Z,11.50
2017-09-22T06:33:28.501Z,11.60
2017-09-22T06:35:56.764Z,11.60
2017-09-22T06:38:25.079Z,11.60
2017-09-22T06:40:53.348Z,11.70
2017-09-22T06:43:24.678Z,11.70
2017-09-22T06:45:52.936Z,11.80
2017-09-22T06:48:21.204Z,11.70
2017-09-22T06:50:50.385Z,11.80
2017-09-22T06:53:19.230Z,11.80
2017-09-22T06:55:51.108Z,11.90
2017-09-22T06:58:19.616Z,11.90
2017-09-22T07:01:01.509Z,12.00
2017-09-22T07:03:29.790Z,12.10
2017-09-22T07:06:14.733Z,12.10
2017-09-22T07:08:42.987Z,12.10
2017-09-22T07:11:11.272Z,12.00
2017-09-22T07:13:39.531Z,12.20
2017-09-22T07:16:07.819Z,12.30
2017-09-22T07:18:35.328Z,12.30
2017-09-22T07:21:03.612Z,12.40
2017-09-22T07:23:31.875Z,12.40
2017-09-22T07:26:00.186Z,12.40
2017-09-22T07:28:27.692Z,12.40
2017-09-22T07:30:55.953Z,12.60
2017-09-22T07:33:24.237Z,12.70
2017-09-22T07:35:52.515Z,12.80
2017-09-22T07:38:20.819Z,12.90
2017-09-22T07:40:55.757Z,13.00
2017-09-22T07:43:24.060Z,13.00
2017-09-22T07:45:52.323Z,13.00
2017-09-22T07:48:20.621Z,13.10
2017-09-22T07:50:50.231Z,13.20
2017-09-22T07:53:21.667Z,13.20
2017-09-22T07:55:50.873Z,13.20
2017-09-22T07:58:20.150Z,13.40
2017-09-22T08:00:52.190Z,13.40
2017-09-22T08:03:20.513Z,13.30
2017-09-22T08:05:53.296Z,13.40
2017-09-22T08:08:21.603Z,13.60
2017-09-22T08:10:51.854Z,13.60
2017-09-22T08:13:21.143Z,13.60
2017-09-22T08:15:49.409Z,13.60
2017-09-22T08:18:21.959Z,13.70
2017-09-22T08:20:51.685Z,13.80
2017-09-22T08:23:20.863Z,13.80
2017-09-22T08:25:49.667Z,13.80
2017-09-22T08:28:18.876Z,13.90
2017-09-22T08:30:47.180Z,14.00
2017-09-22T08:33:15.504Z,14.00
2017-09-22T08:35:43.773Z,14.20
2017-09-22T08:38:12.073Z,14.20
2017-09-22T08:40:40.369Z,14.20
2017-09-22T08:43:08.632Z,14.30
2017-09-22T08:45:36.931Z,14.30
2017-09-22T08:48:05.219Z,14.30
2017-09-22T08:50:33.530Z,14.40
2017-09-22T08:53:01.795Z,14.50
2017-09-22T08:55:30.091Z,14.70
2017-09-22T08:57:58.347Z,14.70
2017-09-22T09:00:26.649Z,14.80
2017-09-22T09:02:54.926Z,14.90
2017-09-22T09:05:23.255Z,14.90
2017-09-22T09:07:51.520Z,15.10
2017-09-22T09:10:20.899Z,15.20
2017-09-22T09:12:50.586Z,15.40
2017-09-22T09:15:22.271Z,15.40
2017-09-22T09:17:50.540Z,15.50
2017-09-22T09:20:21.192Z,15.60
2017-09-22T09:22:49.464Z,15.60
2017-09-22T09:25:19.144Z,15.70
2017-09-22T09:27:49.219Z,15.70
2017-09-22T09:30:18.198Z,15.80
2017-09-22T09:32:46.510Z,15.80
2017-09-22T09:35:14.773Z,16.00
2017-09-22T09:37:44.080Z,16.00
2017-09-22T09:40:12.379Z,16.10
2017-09-22T09:43:00.054Z,16.20
2017-09-22T09:45:28.336Z,16.10
2017-09-22T09:47:56.607Z,16.10
2017-09-22T09:50:24.899Z,16.10
2017-09-22T09:52:56.138Z,16.20
2017-09-22T09:55:24.448Z,16.30
2017-09-22T09:57:58.376Z,16.30
2017-09-22T10:00:26.726Z,16.30
2017-09-22T10:02:55.010Z,16.40
2017-09-22T10:05:23.274Z,16.50
2017-09-22T10:08:01.713Z,16.70
2017-09-22T10:10:30.006Z,16.80
2017-09-22T10:12:57.514Z,16.80
2017-09-22T10:15:25.803Z,17.10
2017-09-22T10:17:55.090Z,17.10
2017-09-22T10:20:23.367Z,17.30
2017-09-22T10:22:51.958Z,17.40
2017-09-22T10:25:20.899Z,17.40
2017-09-22T10:27:50.445Z,17.40
2017-09-22T10:30:20.362Z,17.40
2017-09-22T10:32:52.083Z,17.60
2017-09-22T10:35:20.976Z,17.70
2017-09-22T10:37:51.567Z,17.80
2017-09-22T10:40:21.048Z,17.90
2017-09-22T10:42:52.769Z,17.80
2017-09-22T10:45:21.112Z,17.70
2017-09-22T10:47:49.371Z,17.60
2017-09-22T10:50:19.746Z,17.70
2017-09-22T10:52:48.044Z,17.60
2017-09-22T10:55:34.746Z,17.60
2017-09-22T10:58:03.001Z,17.60
2017-09-22T11:00:41.279Z,17.60
2017-09-22T11:03:09.541Z,17.90
2017-09-22T11:05:38.760Z,17.80
2017-09-22T11:08:07.057Z,17.90
2017-09-22T11:10:35.324Z,17.90
2017-09-22T11:13:02.887Z,17.80
2017-09-22T11:15:31.144Z,18.00
2017-09-22T11:17:59.425Z,18.00
2017-09-22T11:20:27.721Z,18.00
2017-09-22T11:22:55.989Z,18.00
2017-09-22T11:25:24.299Z,18.00
2017-09-22T11:27:52.555Z,18.00
2017-09-22T11:30:20.812Z,18.10
2017-09-22T11:32:51.340Z,18.20
2017-09-22T11:35:20.146Z,18.20
2017-09-22T11:37:50.773Z,18.20
2017-09-22T11:40:20.950Z,18.20
2017-09-22T11:42:50.044Z,18.20
2017-09-22T11:45:19.437Z,18.60
2017-09-22T11:47:48.987Z,18.60
2017-09-22T11:50:17.240Z,18.60
2017-09-22T11:52:45.496Z,18.90
2017-09-22T11:55:13.791Z,19.10
2017-09-22T11:57:43.047Z,19.40
2017-09-22T12:00:11.342Z,19.40
2017-09-22T12:02:39.661Z,19.30
2017-09-22T12:05:07.920Z,19.50
2017-09-22T12:07:39.573Z,19.40
2017-09-22T12:10:07.828Z,19.50
2017-09-22T12:12:49.514Z,19.50
2017-09-22T12:15:18.547Z,19.50
2017-09-22T12:17:54.496Z,19.50
2017-09-22T12:20:22.754Z,19.60
2017-09-22T12:22:52.015Z,19.50
2017-09-22T12:25:21.141Z,19.60
2017-09-22T12:27:51.417Z,19.60
2017-09-22T12:30:20.609Z,19.70
2017-09-22T12:32:51.084Z,19.70
2017-09-22T12:35:19.350Z,19.70
2017-09-22T12:38:07.892Z,20.00
2017-09-22T12:40:36.151Z,20.00
2017-09-22T12:43:09.813Z,20.00
2017-09-22T12:45:38.093Z,19.90
2017-09-22T12:51:00.168Z,19.80
2017-09-22T12:53:28.453Z,19.60
2017-09-22T12:56:04.869Z,19.50
2017-09-22T12:58:34.146Z,19.50
2017-09-22T13:01:05.052Z,19.70
2017-09-22T13:03:34.161Z,19.60
2017-09-22T13:06:02.491Z,19.60
2017-09-22T13:08:30.865Z,19.50
2017-09-22T13:10:59.150Z,19.60
2017-09-22T13:13:27.415Z,19.70
2017-09-22T13:15:57.711Z,19.90
2017-09-22T13:18:25.994Z,20.10
2017-09-22T13:21:00.629Z,20.00
2017-09-22T13:23:28.884Z,20.20
2017-09-22T13:25:59.147Z,20.00
2017-09-22T13:28:27.408Z,19.80
2017-09-22T13:30:55.681Z,19.80
2017-09-22T13:33:24.001Z,19.80
2017-09-22T13:35:52.265Z,19.80
2017-09-22T13:38:20.529Z,19.60
2017-09-22T13:40:52.211Z,19.50
2017-09-22T13:43:20.497Z,19.50
2017-09-22T13:45:53.231Z,19.50
2017-09-22T13:48:21.493Z,19.50
2017-09-22T13:50:51.075Z,19.50
2017-09-22T13:53:19.347Z,19.50
2017-09-22T13:55:54.203Z,19.40
2017-09-22T13:58:22.506Z,19.30
2017-09-22T14:00:50.811Z,19.40
2017-09-22T14:03:19.696Z,19.30
2017-09-22T14:05:47.954Z,19.20
2017-09-22T14:08:16.280Z,19.20
2017-09-22T14:10:44.574Z,19.50
2017-09-22T14:13:12.879Z,19.40
2017-09-22T14:15:41.139Z,19.40
2017-09-22T14:18:08.640Z,19.40
2017-09-22T14:20:36.936Z,19.50
2017-09-22T14:23:05.189Z,19.60
2017-09-22T14:25:35.059Z,19.80
2017-09-22T14:28:04.705Z,19.80
2017-09-22T14:30:32.959Z,19.80
2017-09-22T14:33:01.220Z,19.70
2017-09-22T14:35:29.503Z,19.90
2017-09-22T14:37:57.762Z,19.90
2017-09-22T14:40:26.045Z,20.00
2017-09-22T14:42:57.509Z,20.00
2017-09-22T14:45:25.764Z,20.30
2017-09-22T14:47:57.509Z,20.30
2017-09-22T14:50:25.782Z,20.10
2017-09-22T14:53:00.298Z,20.00
2017-09-22T14:55:28.564Z,19.90
2017-09-22T14:58:00.680Z,19.80
2017-09-22T15:00:28.979Z,19.60
2017-09-22T15:02:57.241Z,19.50
2017-09-22T15:05:25.558Z,19.30
2017-09-22T15:07:53.832Z,19.30
2017-09-22T15:10:22.132Z,19.20
2017-09-22T15:12:51.597Z,19.20
2017-09-22T15:15:21.102Z,19.20
2017-09-22T15:17:49.357Z,19.20
2017-09-22T15:20:17.631Z,19.10
2017-09-22T15:22:45.908Z,19.20
2017-09-22T15:25:14.209Z,19.20
2017-09-22T15:27:42.475Z,19.20
2017-09-22T15:30:15.033Z,19.30
2017-09-22T15:32:43.299Z,19.30
2017-09-22T15:35:19.725Z,19.20
2017-09-22T15:37:47.988Z,19.10
2017-09-22T15:40:16.239Z,19.20
2017-09-22T15:42:44.528Z,19.20
2017-09-22T15:45:16.639Z,19.10
2017-09-22T15:47:44.896Z,19.10
2017-09-22T15:50:13.164Z,19.00
2017-09-22T15:52:40.675Z,19.00
2017-09-22T15:55:08.935Z,19.00
2017-09-22T15:57:37.262Z,18.90
2017-09-22T16:00:29.524Z,18.80
2017-09-22T16:02:57.819Z,18.70
2017-09-22T16:05:26.105Z,18.70
2017-09-22T16:07:54.376Z,18.70
2017-09-22T16:10:22.685Z,18.70
2017-09-22T16:12:50.940Z,18.60
2017-09-22T16:15:20.071Z,18.60
2017-09-22T16:17:47.568Z,18.60
2017-09-22T16:20:15.858Z,18.60
2017-09-22T16:22:44.143Z,18.50
2017-09-22T16:25:12.415Z,18.50
2017-09-22T16:27:40.720Z,18.50
2017-09-22T16:30:08.972Z,18.60
2017-09-22T16:32:37.241Z,18.50
2017-09-22T16:35:05.542Z,18.50
2017-09-22T16:37:33.801Z,18.40
2017-09-22T16:40:02.095Z,18.30
2017-09-22T16:42:31.360Z,18.30
2017-09-22T16:44:59.619Z,18.40
2017-09-22T16:47:27.928Z,18.30
2017-09-22T16:49:56.248Z,18.30
2017-09-22T16:52:24.511Z,18.20
2017-09-22T16:54:52.787Z,18.10
2017-09-22T16:57:21.080Z,18.10
2017-09-22T16:59:50.223Z,18.10
2017-09-22T17:02:18.998Z,18.00
2017-09-22T17:04:47.264Z,18.00
2017-09-22T17:07:15.535Z,18.00
2017-09-22T17:09:46.998Z,18.00
2017-09-22T17:12:15.278Z,17.90
2017-09-22T17:14:43.601Z,17.80
2017-09-22T17:17:11.929Z,17.80
2017-09-22T17:19:40.193Z,17.80
2017-09-22T17:22:08.456Z,17.80
2017-09-22T17:24:36.769Z,17.80
2017-09-22T17:27:05.039Z,17.70
2017-09-22T17:29:34.783Z,17.70
2017-09-22T17:32:04.355Z,17.70
2017-09-22T17:34:33.414Z,17.60
2017-09-22T17:37:01.719Z,17.60
2017-09-22T17:39:30.028Z,17.60
2017-09-22T17:41:58.301Z,17.50
2017-09-22T17:44:26.581Z,17.60
2017-09-22T17:46:54.880Z,17.60
2017-09-22T17:49:23.140Z,17.60
2017-09-22T17:51:51.416Z,17.50
2017-09-22T17:54:20.902Z,17.50
2017-09-22T17:56:49.254Z,17.50
2017-09-22T17:59:17.519Z,17.50
2017-09-22T18:01:45.827Z,17.60
2017-09-22T18:04:14.150Z,17.60
2017-09-22T18:06:42.430Z,17.50
2017-09-22T18:09:10.701Z,17.50
2017-09-22T18:11:38.993Z,17.50
2017-09-22T18:14:07.274Z,17.50
2017-09-22T18:16:35.548Z,17.50
2017-09-22T18:19:03.851Z,17.40
2017-09-22T18:21:32.125Z,17.40
2017-09-22T18:24:00.389Z,17.40
2017-09-22T18:26:27.911Z,17.40
2017-09-22T18:28:56.967Z,17.30
2017-09-22T18:31:25.258Z,17.20
2017-09-22T18:33:53.524Z,17.20
2017-09-22T18:36:21.819Z,17.30
2017-09-22T18:38:50.693Z,17.30
2017-09-22T18:41:19.040Z,17.40
2017-09-22T18:43:47.344Z,17.20
2017-09-22T18:46:15.624Z,17.10
2017-09-22T18:48:43.942Z,17.10
2017-09-22T18:51:12.208Z,16.90
2017-09-22T18:53:40.480Z,17.00
2017-09-22T18:56:08.782Z,17.00
2017-09-22T18:58:37.059Z,17.00
2017-09-22T19:01:05.360Z,16.90
2017-09-22T19:03:34.064Z,16.80
2017-09-22T19:06:02.381Z,16.80
2017-09-22T19:08:30.699Z,16.80
2017-09-22T19:10:58.964Z,16.80
2017-09-22T19:13:27.264Z,16.80
2017-09-22T19:15:54.777Z,16.80
2017-09-22T19:18:23.053Z,16.90
2017-09-22T19:20:51.644Z,16.90
2017-09-22T19:23:20.488Z,17.00
2017-09-22T19:25:49.857Z,17.00
2017-09-22T19:28:18.131Z,16.90
2017-09-22T19:30:46.419Z,16.90
2017-09-22T19:33:14.733Z,16.90
2017-09-22T19:35:42.995Z,16.90
2017-09-22T19:38:11.288Z,16.90
2017-09-22T19:40:39.558Z,16.90
2017-09-22T19:43:07.860Z,16.90
2017-09-22T19:45:36.137Z,16.80
2017-09-22T19:48:05.777Z,16.80
2017-09-22T19:50:35.296Z,16.80
2017-09-22T19:53:04.531Z,16.80
2017-09-22T19:55:32.792Z,16.70
2017-09-22T19:58:01.059Z,16.80
2017-09-22T20:00:29.352Z,16.80
2017-09-22T20:02:56.844Z,16.80
2017-09-22T20:05:25.183Z,16.80
2017-09-22T20:07:53.461Z,16.80
2017-09-22T20:10:21.793Z,16.80
2017-09-22T20:12:50.996Z,16.80
2017-09-22T20:15:20.488Z,16.70
2017-09-22T20:17:49.099Z,16.70
2017-09-22T20:20:17.402Z,16.70
2017-09-22T20:22:45.706Z,16.70
2017-09-22T20:25:13.976Z,16.70
2017-09-22T20:27:42.304Z,16.60
2017-09-22T20:30:10.600Z,16.70
2017-09-22T20:32:38.100Z,16.60
2017-09-22T20:35:06.360Z,16.70
2017-09-22T20:37:36.124Z,16.70
2017-09-22T20:40:04.403Z,16.60
2017-09-22T20:42:33.395Z,16.50
2017-09-22T20:45:01.689Z,16.40
2017-09-22T20:47:29.953Z,16.40
2017-09-22T20:49:58.253Z,16.40
2017-09-22T20:52:26.551Z,16.40
2017-09-22T20:54:54.853Z,16.40
2017-09-22T20:57:23.121Z,16.40
2017-09-22T20:59:51.381Z,16.50
2017-09-22T21:02:19.675Z,16.50
2017-09-22T21:04:47.968Z,16.50
2017-09-22T21:07:16.256Z,16.40
2017-09-22T21:09:44.520Z,16.40
2017-09-22T21:12:12.834Z,16.40
2017-09-22T21:14:41.098Z,16.40
2017-09-22T21:17:09.355Z,16.40
2017-09-22T21:19:37.647Z,16.40
2017-09-22T21:22:05.143Z,16.40
2017-09-22T21:24:34.091Z,16.40
2017-09-22T21:27:02.350Z,16.40
2017-09-22T21:29:30.616Z,16.40
2017-09-22T21:31:58.921Z,16.40
2017-09-22T21:34:27.199Z,16.30
2017-09-22T21:36:55.505Z,16.40
2017-09-22T21:39:23.776Z,16.40
2017-09-22T21:41:52.094Z,16.30
2017-09-22T21:44:22.350Z,16.30
2017-09-22T21:46:51.339Z,16.40
2017-09-22T21:49:19.594Z,16.60
2017-09-22T21:51:47.887Z,16.50
2017-09-22T21:54:15.423Z,16.50
2017-09-22T21:56:43.690Z,16.40
2017-09-22T21:59:11.951Z,16.40
2017-09-22T22:01:40.253Z,16.30
2017-09-22T22:04:14.092Z,16.10
2017-09-22T22:06:48.128Z,16.00
2017-09-22T22:09:16.391Z,15.90
2017-09-22T22:11:44.689Z,15.90
2017-09-22T22:14:12.195Z,15.90
2017-09-22T22:16:40.491Z,16.00
2017-09-22T22:19:08.801Z,16.20
2017-09-22T22:21:37.099Z,16.00
2017-09-22T22:24:05.356Z,16.00
2017-09-22T22:26:34.687Z,16.00
2017-09-22T22:29:02.964Z,16.00
2017-09-22T22:31:31.227Z,16.10
2017-09-22T22:33:59.515Z,16.00
2017-09-22T22:36:27.866Z,16.00
2017-09-22T22:38:56.127Z,16.00
2017-09-22T22:41:24.395Z,16.00
2017-09-22T22:43:52.696Z,16.00
2017-09-22T22:46:20.711Z,16.00
2017-09-22T22:48:50.003Z,15.90
2017-09-22T22:51:18.296Z,15.80
2017-09-22T22:53:46.569Z,15.90
2017-09-22T22:56:14.874Z,15.90
2017-09-22T22:58:43.170Z,15.90
2017-09-22T23:01:11.460Z,15.90
2017-09-22T23:03:39.721Z,15.90
2017-09-22T23:06:08.011Z,15.80
2017-09-22T23:08:36.311Z,15.70
2017-09-22T23:11:05.431Z,15.60
2017-09-22T23:13:33.687Z,15.60
2017-09-22T23:16:01.990Z,15.60
2017-09-22T23:18:30.287Z,15.60
2017-09-22T23:20:58.577Z,15.80
2017-09-22T23:23:26.871Z,15.70
2017-09-22T23:25:55.169Z,15.80
2017-09-22T23:28:22.717Z,15.80
2017-09-22T23:30:50.980Z,15.60
2017-09-22T23:33:20.508Z,15.70
2017-09-22T23:35:49.198Z,15.70
2017-09-22T23:38:17.457Z,15.70
2017-09-22T23:40:45.756Z,15.60
2017-09-22T23:43:14.028Z,15.50
2017-09-22T23:45:41.528Z,15.50
2017-09-22T23:48:09.815Z,15.50
2017-09-22T23:50:38.075Z,15.60
2017-09-22T23:53:06.390Z,15.60
2017-09-22T23:55:35.710Z,15.60
2017-09-22T23:58:04.921Z,15.60
